createdAt,value
2023-04-20T00:01:13.555Z,2.16
2023-04-20T00:03:43.960Z,2.16
2023-04-20T00:06:15.641Z,1.94
2023-04-20T00:08:46.143Z,1.89
2023-04-20T00:11:16.408Z,1.83
2023-04-20T00:13:46.689Z,1.81
2023-04-20T00:16:19.538Z,1.90
2023-04-20T00:18:49.897Z,1.86
2023-04-20T00:21:22.044Z,1.82
2023-04-20T00:23:52.336Z,1.72
2023-04-20T00:26:22.723Z,1.46
2023-04-20T00:28:56.239Z,1.58
2023-04-20T00:31:34.213Z,1.73
2023-04-20T00:34:04.517Z,1.84
2023-04-20T00:36:34.811Z,2.00
2023-04-20T00:39:05.884Z,2.03
2023-04-20T00:41:36.241Z,1.88
2023-04-20T00:44:06.896Z,1.71
2023-04-20T00:46:40.143Z,1.85
2023-04-20T00:49:10.754Z,1.61
2023-04-20T00:51:41.255Z,1.60
2023-04-20T00:54:11.694Z,1.69
2023-04-20T00:56:42.058Z,1.54
2023-04-20T00:59:12.935Z,1.30
2023-04-20T01:01:45.805Z,1.19
2023-04-20T01:04:18.641Z,0.99
2023-04-20T01:06:49.541Z,0.78
2023-04-20T01:09:20.020Z,0.75
2023-04-20T01:11:50.632Z,0.87
2023-04-20T01:14:20.859Z,0.78
2023-04-20T01:16:53.758Z,0.83
2023-04-20T01:19:24.478Z,0.87
2023-04-20T01:21:54.887Z,0.89
2023-04-20T01:24:27.871Z,0.76
2023-04-20T01:26:57.809Z,0.70
2023-04-20T01:29:27.762Z,0.59
2023-04-20T01:31:57.901Z,0.31
2023-04-20T01:34:28.220Z,0.19
2023-04-20T01:36:58.201Z,0.21
2023-04-20T01:39:31.370Z,0.14
2023-04-20T01:42:01.811Z,0.10
2023-04-20T01:44:31.817Z,0.08
2023-04-20T01:47:02.778Z,-0.01
2023-04-20T01:49:32.964Z,0.14
2023-04-20T01:52:02.865Z,-0.05
2023-04-20T01:54:35.418Z,-0.17
2023-04-20T01:57:05.320Z,-0.09
2023-04-20T01:59:35.167Z,0.01
2023-04-20T02:02:05.440Z,-0.03
2023-04-20T02:04:36.092Z,-0.08
2023-04-20T02:07:05.961Z,-0.09
2023-04-20T02:09:38.424Z,-0.14
2023-04-20T02:12:08.928Z,-0.15
2023-04-20T02:14:38.862Z,-0.14
2023-04-20T02:17:14.024Z,-0.14
2023-04-20T02:19:44.085Z,-0.15
2023-04-20T02:22:14.033Z,-0.32
2023-04-20T02:24:46.830Z,-0.37
2023-04-20T02:27:17.727Z,-0.39
2023-04-20T02:29:47.699Z,-0.50
2023-04-20T02:32:17.577Z,-0.58
2023-04-20T02:34:47.438Z,-0.66
2023-04-20T02:37:17.377Z,-0.73
2023-04-20T02:39:49.845Z,-0.90
2023-04-20T02:42:21.108Z,-0.83
2023-04-20T02:44:52.900Z,-0.98
2023-04-20T02:47:22.919Z,-0.97
2023-04-20T02:49:54.618Z,-0.95
2023-04-20T02:52:24.552Z,-1.03
2023-04-20T02:54:57.495Z,-1.04
2023-04-20T02:57:28.045Z,-1.15
2023-04-20T02:59:59.300Z,-1.04
2023-04-20T03:02:40.389Z,-1.09
2023-04-20T03:05:12.448Z,-1.14
2023-04-20T03:07:46.520Z,-1.16
2023-04-20T03:10:19.303Z,-1.21
2023-04-20T03:12:58.583Z,-1.14
2023-04-20T03:15:46.917Z,-1.20
2023-04-20T03:18:32.060Z,-1.25
2023-04-20T03:21:02.247Z,-1.32
2023-04-20T03:23:34.598Z,-1.21
2023-04-20T03:26:08.685Z,-1.19
2023-04-20T03:28:46.242Z,-1.26
2023-04-20T03:31:21.593Z,-1.32
2023-04-20T03:33:52.419Z,-1.27
2023-04-20T03:36:22.794Z,-1.26
2023-04-20T03:38:52.819Z,-1.18
2023-04-20T03:41:25.943Z,-1.23
2023-04-20T03:43:56.114Z,-1.32
2023-04-20T03:46:26.139Z,-1.25
2023-04-20T03:48:56.159Z,-1.21
2023-04-20T03:51:26.801Z,-1.34
2023-04-20T03:53:56.660Z,-1.37
2023-04-20T03:56:29.632Z,-1.40
2023-04-20T03:58:59.960Z,-1.46
2023-04-20T04:01:32.005Z,-1.50
2023-04-20T04:04:02.138Z,-1.46
2023-04-20T04:06:34.917Z,-1.50
2023-04-20T04:09:04.891Z,-1.42
2023-04-20T04:11:37.363Z,-1.38
2023-04-20T04:14:07.886Z,-1.42
2023-04-20T04:16:39.902Z,-1.48
2023-04-20T04:19:09.872Z,-1.42
2023-04-20T04:21:41.528Z,-1.45
2023-04-20T04:24:12.212Z,-1.44
2023-04-20T04:26:52.329Z,-1.43
2023-04-20T04:29:22.311Z,-1.32
2023-04-20T04:31:52.321Z,-1.38
2023-04-20T04:34:24.172Z,-1.12
2023-04-20T04:36:55.904Z,-1.05
2023-04-20T04:39:34.246Z,-0.93
2023-04-20T04:42:15.229Z,-0.63
2023-04-20T04:44:46.417Z,-0.69
2023-04-20T04:47:22.402Z,-0.72
2023-04-20T04:49:52.419Z,-0.66
2023-04-20T04:52:22.320Z,-0.68
2023-04-20T04:54:52.582Z,-0.67
2023-04-20T04:57:26.218Z,-0.59
2023-04-20T04:59:56.509Z,-0.64
2023-04-20T05:02:27.409Z,-0.50
2023-04-20T05:04:57.832Z,-0.31
2023-04-20T05:07:27.815Z,-0.20
2023-04-20T05:09:57.642Z,0.06
2023-04-20T05:12:30.413Z,0.43
2023-04-20T05:15:00.570Z,0.80
2023-04-20T05:17:30.575Z,1.43
2023-04-20T05:20:00.984Z,1.85
2023-04-20T05:22:30.892Z,2.55
2023-04-20T05:25:00.729Z,3.17
2023-04-20T05:27:33.569Z,3.79
2023-04-20T05:30:18.817Z,4.45
2023-04-20T05:32:52.356Z,4.90
2023-04-20T05:35:22.873Z,5.15
2023-04-20T05:37:52.770Z,5.42
2023-04-20T05:40:22.704Z,5.80
2023-04-20T05:42:55.295Z,6.33
2023-04-20T05:45:25.299Z,6.82
2023-04-20T05:47:56.257Z,7.33
2023-04-20T05:50:26.765Z,7.94
2023-04-20T05:52:56.953Z,8.51
2023-04-20T05:55:27.254Z,8.97
2023-04-20T05:57:59.748Z,9.82
2023-04-20T06:00:29.712Z,9.95
2023-04-20T06:02:59.839Z,9.98
2023-04-20T06:05:29.806Z,10.41
2023-04-20T06:07:59.712Z,10.61
2023-04-20T06:10:32.498Z,10.71
2023-04-20T06:13:05.043Z,10.72
2023-04-20T06:15:34.948Z,10.92
2023-04-20T06:18:05.207Z,11.25
2023-04-20T06:20:35.062Z,11.70
2023-04-20T06:23:04.909Z,12.41
2023-04-20T06:25:34.857Z,12.96
2023-04-20T06:28:07.815Z,13.59
2023-04-20T06:30:38.005Z,13.57
2023-04-20T06:33:09.094Z,13.29
2023-04-20T06:35:40.205Z,13.01
2023-04-20T06:38:10.030Z,12.54
2023-04-20T06:40:40.059Z,13.43
2023-04-20T06:43:12.588Z,14.61
2023-04-20T06:45:42.950Z,14.80
2023-04-20T06:48:30.225Z,15.20
2023-04-20T06:51:01.836Z,15.69
2023-04-20T06:53:32.407Z,14.87
2023-04-20T06:56:02.488Z,14.41
2023-04-20T06:58:34.949Z,13.34
2023-04-20T07:01:05.080Z,12.29
2023-04-20T07:03:35.305Z,11.35
2023-04-20T07:06:05.419Z,10.11
2023-04-20T07:08:35.369Z,10.03
2023-04-20T07:11:05.409Z,9.98
2023-04-20T07:13:38.033Z,10.28
2023-04-20T07:16:08.743Z,10.36
2023-04-20T07:18:38.692Z,10.55
2023-04-20T07:21:08.872Z,10.90
2023-04-20T07:23:38.760Z,11.14
2023-04-20T07:26:08.878Z,11.30
2023-04-20T07:28:41.436Z,10.48
2023-04-20T07:31:11.346Z,9.93
2023-04-20T07:33:41.337Z,9.83
2023-04-20T07:36:12.001Z,9.19
2023-04-20T07:38:42.066Z,9.14
2023-04-20T07:41:12.833Z,9.17
2023-04-20T07:43:45.461Z,9.13
2023-04-20T07:46:22.946Z,9.11
2023-04-20T07:48:52.963Z,9.07
2023-04-20T07:51:22.869Z,9.01
2023-04-20T07:53:52.744Z,8.91
2023-04-20T07:56:22.626Z,8.88
2023-04-20T07:58:55.252Z,8.92
2023-04-20T08:01:27.058Z,8.73
2023-04-20T08:03:57.858Z,8.57
2023-04-20T08:06:28.213Z,8.27
2023-04-20T08:08:58.099Z,8.10
2023-04-20T08:11:28.121Z,8.07
2023-04-20T08:14:00.536Z,8.02
2023-04-20T08:16:30.598Z,7.99
2023-04-20T08:19:01.939Z,7.75
2023-04-20T08:21:31.875Z,7.62
2023-04-20T08:24:01.752Z,7.69
2023-04-20T08:26:31.804Z,7.62
2023-04-20T08:29:05.526Z,7.62
2023-04-20T08:31:35.699Z,7.64
2023-04-20T08:34:05.617Z,7.54
2023-04-20T08:36:36.329Z,7.44
2023-04-20T08:39:11.719Z,7.39
2023-04-20T08:41:42.002Z,7.15
2023-04-20T08:44:14.594Z,7.24
2023-04-20T08:46:49.422Z,7.45
2023-04-20T08:49:21.026Z,7.23
2023-04-20T08:51:51.749Z,7.06
2023-04-20T08:54:22.625Z,6.85
2023-04-20T08:56:54.124Z,6.68
2023-04-20T08:59:27.565Z,6.91
2023-04-20T09:01:57.465Z,6.96
2023-04-20T09:04:29.309Z,6.94
2023-04-20T09:06:59.478Z,7.04
2023-04-20T09:09:29.320Z,7.07
2023-04-20T09:12:07.557Z,7.15
2023-04-20T09:14:48.719Z,7.21
2023-04-20T09:17:19.690Z,7.33
2023-04-20T09:19:55.801Z,7.48
2023-04-20T09:22:32.828Z,7.79
2023-04-20T09:25:03.456Z,7.95
2023-04-20T09:27:33.420Z,7.96
2023-04-20T09:30:07.092Z,8.16
2023-04-20T09:32:37.021Z,8.18
2023-04-20T09:35:07.936Z,8.12
2023-04-20T09:37:37.826Z,8.12
2023-04-20T09:40:09.908Z,8.17
2023-04-20T09:42:42.407Z,7.94
2023-04-20T09:45:16.869Z,7.88
2023-04-20T09:47:47.125Z,7.61
2023-04-20T09:50:26.713Z,7.49
2023-04-20T09:53:00.277Z,7.70
2023-04-20T09:55:30.492Z,7.87
2023-04-20T09:58:00.860Z,7.73
2023-04-20T10:00:33.576Z,7.29
2023-04-20T10:03:03.806Z,7.15
2023-04-20T10:05:40.022Z,7.28
2023-04-20T10:08:10.231Z,7.25
2023-04-20T10:10:51.527Z,7.25
2023-04-20T10:13:23.359Z,7.05
2023-04-20T10:15:55.814Z,7.05
2023-04-20T10:18:27.674Z,6.92
2023-04-20T10:21:09.761Z,6.98
2023-04-20T10:23:50.517Z,7.17
2023-04-20T10:26:20.522Z,7.31
2023-04-20T10:28:50.557Z,7.45
2023-04-20T10:31:23.050Z,7.52
2023-04-20T10:33:57.263Z,7.22
2023-04-20T10:36:30.153Z,7.04
2023-04-20T10:39:01.617Z,6.85
2023-04-20T10:41:31.689Z,7.10
2023-04-20T10:44:10.578Z,7.31
2023-04-20T10:46:43.211Z,7.49
2023-04-20T10:49:13.136Z,7.50
2023-04-20T10:51:49.755Z,7.87
2023-04-20T10:54:20.549Z,8.10
2023-04-20T10:56:52.526Z,8.29
2023-04-20T10:59:25.031Z,8.68
2023-04-20T11:01:59.845Z,8.89
2023-04-20T11:04:34.653Z,8.87
2023-04-20T11:07:09.015Z,8.63
2023-04-20T11:09:40.282Z,8.82
2023-04-20T11:12:14.844Z,9.06
2023-04-20T11:14:53.900Z,9.31
2023-04-20T11:17:33.706Z,9.47
2023-04-20T11:20:10.653Z,9.77
2023-04-20T11:22:41.263Z,10.69
2023-04-20T11:25:12.713Z,11.16
2023-04-20T11:27:43.308Z,11.63
2023-04-20T11:30:14.318Z,12.51
2023-04-20T11:32:56.506Z,12.03
2023-04-20T11:35:26.765Z,11.53
2023-04-20T11:37:57.764Z,11.10
2023-04-20T11:40:28.531Z,11.15
2023-04-20T11:43:00.256Z,11.26
2023-04-20T11:45:31.281Z,11.38
2023-04-20T11:48:04.747Z,11.38
2023-04-20T11:50:35.085Z,10.91
2023-04-20T11:53:05.979Z,10.35
2023-04-20T11:55:36.748Z,9.87
2023-04-20T11:58:07.220Z,9.71
2023-04-20T12:00:37.750Z,9.91
2023-04-20T12:03:11.008Z,9.95
2023-04-20T12:05:43.400Z,10.16
2023-04-20T12:08:13.771Z,10.44
2023-04-20T12:10:44.015Z,10.35
2023-04-20T12:13:15.221Z,10.25
2023-04-20T12:15:45.656Z,9.75
2023-04-20T12:18:19.464Z,9.86
2023-04-20T12:20:50.379Z,9.74
2023-04-20T12:23:20.628Z,9.55
2023-04-20T12:25:50.954Z,9.22
2023-04-20T12:28:21.332Z,9.01
2023-04-20T12:30:51.582Z,9.02
2023-04-20T12:33:24.561Z,9.25
2023-04-20T12:35:54.805Z,9.17
2023-04-20T12:38:25.068Z,9.21
2023-04-20T12:40:55.618Z,9.25
2023-04-20T12:43:25.879Z,9.39
2023-04-20T12:45:56.075Z,9.10
2023-04-20T12:48:28.881Z,9.05
2023-04-20T12:50:59.166Z,8.99
2023-04-20T12:53:29.461Z,9.03
2023-04-20T12:56:01.361Z,8.97
2023-04-20T12:58:31.924Z,8.91
2023-04-20T13:01:02.425Z,8.52
2023-04-20T13:03:35.884Z,8.56
2023-04-20T13:06:06.553Z,8.52
2023-04-20T13:08:37.395Z,8.21
2023-04-20T13:11:07.783Z,8.25
2023-04-20T13:13:37.976Z,8.03
2023-04-20T13:16:08.646Z,8.03
2023-04-20T13:18:41.531Z,8.01
2023-04-20T13:21:11.965Z,7.91
2023-04-20T13:23:42.508Z,8.07
2023-04-20T13:26:12.957Z,8.08
2023-04-20T13:28:43.199Z,8.12
2023-04-20T13:31:13.531Z,7.99
2023-04-20T13:33:46.414Z,7.91
2023-04-20T13:36:16.612Z,7.95
2023-04-20T13:38:47.417Z,7.88
2023-04-20T13:41:17.732Z,7.98
2023-04-20T13:43:47.950Z,8.17
2023-04-20T13:46:18.347Z,8.38
2023-04-20T13:48:51.165Z,8.35
2023-04-20T13:51:22.286Z,8.23
2023-04-20T13:53:52.481Z,8.30
2023-04-20T13:56:22.692Z,8.54
2023-04-20T13:58:52.985Z,8.61
2023-04-20T14:01:23.994Z,8.38
2023-04-20T14:03:57.758Z,8.22
2023-04-20T14:06:29.040Z,8.27
2023-04-20T14:08:59.239Z,8.28
2023-04-20T14:11:29.574Z,8.02
2023-04-20T14:13:59.827Z,8.12
2023-04-20T14:16:30.151Z,7.93
2023-04-20T14:19:03.100Z,7.60
2023-04-20T14:21:34.519Z,7.59
2023-04-20T14:24:04.813Z,7.58
2023-04-20T14:26:35.063Z,7.59
2023-04-20T14:29:05.513Z,7.55
2023-04-20T14:31:35.959Z,7.78
2023-04-20T14:34:09.540Z,7.76
2023-04-20T14:36:39.801Z,7.80
2023-04-20T14:39:10.033Z,7.55
2023-04-20T14:41:40.313Z,7.48
2023-04-20T14:44:10.631Z,7.33
2023-04-20T14:46:42.545Z,7.29
2023-04-20T14:49:15.800Z,7.32
2023-04-20T14:51:46.050Z,7.24
2023-04-20T14:54:16.714Z,7.22
2023-04-20T14:56:47.323Z,7.00
2023-04-20T14:59:17.569Z,7.16
2023-04-20T15:02:01.208Z,7.21
2023-04-20T15:04:35.762Z,7.20
2023-04-20T15:07:06.210Z,7.20
2023-04-20T15:09:36.958Z,7.21
2023-04-20T15:12:07.199Z,7.08
2023-04-20T15:14:37.488Z,6.98
2023-04-20T15:17:07.770Z,7.05
2023-04-20T15:19:45.988Z,7.00
2023-04-20T15:22:16.412Z,6.79
2023-04-20T15:24:46.722Z,6.78
2023-04-20T15:27:17.276Z,6.75
2023-04-20T15:29:47.489Z,6.72
2023-04-20T15:32:17.927Z,6.63
2023-04-20T15:34:50.727Z,6.68
2023-04-20T15:37:20.953Z,6.56
2023-04-20T15:39:52.066Z,6.53
2023-04-20T15:42:22.302Z,6.55
2023-04-20T15:44:52.558Z,6.62
2023-04-20T15:47:23.029Z,6.60
2023-04-20T15:50:01.550Z,6.67
2023-04-20T15:52:32.555Z,6.69
2023-04-20T15:55:03.462Z,6.64
2023-04-20T15:57:33.714Z,6.65
2023-04-20T16:00:04.457Z,6.54
2023-04-20T16:02:41.516Z,6.44
2023-04-20T16:05:14.764Z,6.44
2023-04-20T16:07:45.524Z,6.42
2023-04-20T16:10:16.538Z,6.40
2023-04-20T16:12:46.819Z,6.54
2023-04-20T16:15:17.148Z,6.55
2023-04-20T16:17:47.471Z,6.42
2023-04-20T16:20:20.329Z,6.48
2023-04-20T16:22:50.558Z,6.60
2023-04-20T16:25:23.297Z,6.66
2023-04-20T16:27:54.642Z,6.74
2023-04-20T16:30:25.123Z,6.66
2023-04-20T16:32:55.455Z,6.69
2023-04-20T16:35:28.438Z,6.64
2023-04-20T16:37:58.864Z,6.35
2023-04-20T16:40:29.117Z,6.35
2023-04-20T16:43:01.184Z,6.36
2023-04-20T16:45:31.457Z,6.23
2023-04-20T16:48:01.721Z,6.14
2023-04-20T16:50:35.551Z,6.09
2023-04-20T16:53:06.086Z,6.19
2023-04-20T16:55:36.318Z,6.31
2023-04-20T16:58:06.647Z,6.43
2023-04-20T17:00:37.159Z,6.24
2023-04-20T17:03:10.836Z,6.03
2023-04-20T17:05:44.946Z,6.01
2023-04-20T17:08:15.290Z,5.93
2023-04-20T17:10:45.591Z,5.89
2023-04-20T17:13:15.980Z,5.90
2023-04-20T17:15:46.478Z,6.03
2023-04-20T17:18:16.740Z,6.15
2023-04-20T17:20:49.657Z,6.22
2023-04-20T17:23:19.951Z,6.35
2023-04-20T17:25:51.425Z,6.36
2023-04-20T17:28:21.650Z,6.43
2023-04-20T17:30:51.958Z,6.53
2023-04-20T17:33:22.177Z,6.44
2023-04-20T17:35:55.347Z,6.51
2023-04-20T17:38:25.745Z,6.56
2023-04-20T17:40:56.031Z,6.67
2023-04-20T17:43:26.255Z,6.56
2023-04-20T17:45:58.710Z,6.61
2023-04-20T17:48:28.976Z,6.69
2023-04-20T17:51:01.870Z,6.64
2023-04-20T17:53:32.095Z,6.65
2023-04-20T17:56:03.144Z,6.69
2023-04-20T17:58:33.378Z,6.60
2023-04-20T18:01:03.747Z,6.58
2023-04-20T18:03:34.184Z,6.67
2023-04-20T18:06:07.249Z,6.72
2023-04-20T18:08:37.531Z,6.77
2023-04-20T18:11:08.493Z,6.76
2023-04-20T18:13:38.774Z,6.72
2023-04-20T18:16:09.238Z,6.75
2023-04-20T18:18:39.786Z,6.69
2023-04-20T18:21:14.371Z,6.59
2023-04-20T18:23:44.656Z,6.46
2023-04-20T18:26:17.678Z,6.54
2023-04-20T18:28:48.055Z,6.54
2023-04-20T18:31:18.372Z,6.53
2023-04-20T18:33:48.761Z,6.56
2023-04-20T18:36:21.746Z,6.55
2023-04-20T18:38:52.200Z,6.46
2023-04-20T18:41:23.398Z,6.48
2023-04-20T18:43:55.763Z,6.45
2023-04-20T18:46:26.080Z,6.52
2023-04-20T18:48:56.415Z,6.55
2023-04-20T18:51:29.375Z,6.56
2023-04-20T18:53:59.638Z,6.41
2023-04-20T18:56:29.907Z,6.28
2023-04-20T18:59:00.575Z,6.26
2023-04-20T19:01:31.010Z,6.13
2023-04-20T19:04:01.827Z,6.10
2023-04-20T19:06:34.768Z,6.12
2023-04-20T19:09:07.307Z,6.12
2023-04-20T19:11:38.397Z,6.10
2023-04-20T19:14:08.640Z,5.88
2023-04-20T19:16:39.334Z,5.86
2023-04-20T19:19:10.042Z,5.81
2023-04-20T19:21:42.845Z,5.92
2023-04-20T19:24:13.080Z,5.90
2023-04-20T19:26:43.491Z,5.88
2023-04-20T19:29:14.002Z,5.86
2023-04-20T19:31:44.318Z,5.82
2023-04-20T19:34:15.337Z,5.95
2023-04-20T19:36:48.147Z,5.97
2023-04-20T19:39:18.374Z,5.99
2023-04-20T19:41:49.807Z,5.97
2023-04-20T19:44:20.127Z,6.02
2023-04-20T19:46:50.450Z,6.12
2023-04-20T19:49:21.080Z,6.18
2023-04-20T19:51:54.039Z,6.25
2023-04-20T19:54:24.364Z,6.30
2023-04-20T19:56:54.661Z,6.37
2023-04-20T19:59:25.007Z,6.41
2023-04-20T20:01:55.461Z,6.46
2023-04-20T20:04:25.885Z,6.40
2023-04-20T20:06:59.310Z,6.39
2023-04-20T20:09:29.657Z,6.41
2023-04-20T20:12:01.254Z,6.48
2023-04-20T20:14:31.587Z,6.49
2023-04-20T20:17:01.885Z,6.55
2023-04-20T20:19:32.228Z,6.55
2023-04-20T20:22:05.104Z,6.49
2023-04-20T20:24:35.354Z,6.46
2023-04-20T20:27:05.597Z,6.45
2023-04-20T20:29:35.962Z,6.47
2023-04-20T20:32:06.459Z,6.52
2023-04-20T20:34:36.769Z,6.57
2023-04-20T20:37:10.564Z,6.57
2023-04-20T20:39:41.234Z,6.49
2023-04-20T20:42:12.683Z,6.45
2023-04-20T20:44:43.076Z,6.53
2023-04-20T20:47:13.434Z,6.56
2023-04-20T20:49:43.993Z,6.62
2023-04-20T20:52:16.780Z,6.57
2023-04-20T20:54:47.170Z,6.49
2023-04-20T20:57:17.641Z,6.47
2023-04-20T20:59:47.871Z,6.46
2023-04-20T21:02:18.343Z,6.43
2023-04-20T21:04:48.659Z,6.40
2023-04-20T21:07:21.667Z,6.42
2023-04-20T21:09:51.914Z,6.38
2023-04-20T21:12:22.141Z,6.36
2023-04-20T21:14:52.832Z,6.26
2023-04-20T21:17:23.115Z,6.15
2023-04-20T21:19:53.397Z,6.16
2023-04-20T21:22:26.403Z,6.28
2023-04-20T21:24:56.703Z,6.34
2023-04-20T21:27:27.975Z,6.31
2023-04-20T21:29:58.302Z,6.18
2023-04-20T21:32:28.565Z,6.22
2023-04-20T21:34:58.839Z,6.29
2023-04-20T21:37:31.719Z,6.19
2023-04-20T21:40:02.163Z,6.12
2023-04-20T21:42:32.425Z,6.22
2023-04-20T21:45:02.697Z,6.32
2023-04-20T21:47:33.046Z,6.38
2023-04-20T21:50:03.493Z,6.43
2023-04-20T21:52:36.562Z,6.38
2023-04-20T21:55:07.220Z,6.47
2023-04-20T21:57:37.441Z,6.54
2023-04-20T22:00:08.971Z,6.36
2023-04-20T22:02:44.939Z,6.36
2023-04-20T22:05:15.499Z,6.37
2023-04-20T22:07:48.325Z,6.41
2023-04-20T22:10:18.683Z,6.43
2023-04-20T22:12:48.985Z,6.35
2023-04-20T22:15:22.290Z,6.17
2023-04-20T22:17:52.583Z,6.24
2023-04-20T22:20:22.942Z,6.25
2023-04-20T22:22:56.300Z,6.41
2023-04-20T22:25:27.373Z,6.45
2023-04-20T22:27:57.634Z,6.43
2023-04-20T22:30:27.961Z,6.32
2023-04-20T22:32:58.199Z,6.25
2023-04-20T22:35:28.438Z,6.18
2023-04-20T22:38:01.219Z,6.14
2023-04-20T22:40:31.425Z,6.09
2023-04-20T22:43:01.732Z,6.12
2023-04-20T22:45:31.999Z,6.18
2023-04-20T22:48:02.343Z,6.20
2023-04-20T22:50:32.883Z,6.22
2023-04-20T22:53:05.845Z,6.18
2023-04-20T22:55:36.077Z,6.14
2023-04-20T22:58:06.354Z,6.15
2023-04-20T23:00:36.782Z,6.19
2023-04-20T23:03:07.444Z,6.20
2023-04-20T23:05:39.193Z,6.18
2023-04-20T23:08:12.073Z,6.14
2023-04-20T23:10:42.407Z,6.07
2023-04-20T23:13:17.127Z,6.09
2023-04-20T23:15:47.370Z,6.01
2023-04-20T23:18:17.588Z,5.92
2023-04-20T23:20:47.951Z,5.80
2023-04-20T23:23:20.818Z,5.74
2023-04-20T23:25:51.025Z,5.53
2023-04-20T23:28:21.340Z,5.36
2023-04-20T23:30:51.664Z,5.27
2023-04-20T23:33:21.881Z,5.14
2023-04-20T23:35:52.101Z,4.96
2023-04-20T23:38:24.888Z,4.72
2023-04-20T23:40:55.319Z,4.61
2023-04-20T23:43:25.875Z,4.55
2023-04-20T23:45:56.134Z,4.46
2023-04-20T23:48:26.461Z,4.42
2023-04-20T23:50:56.702Z,4.39
2023-04-20T23:53:29.798Z,4.35
2023-04-20T23:56:00.121Z,4.20
2023-04-20T23:58:31.034Z,4.15
